sensor_id;sensor_type;location;lat;lon;timestamp;pressure;altitude;pressure_sealevel;temperature;humidity
76050;BME280;64967;50.234;19.224;2023-06-05T00:00:27;98912.03;;;10.55;74.18
76050;BME280;64967;50.234;19.224;2023-06-05T00:02:55;98902.47;;;10.31;73.67
76050;BME280;64967;50.234;19.224;2023-06-05T00:05:24;98908.31;;;10.35;73.08
76050;BME280;64967;50.234;19.224;2023-06-05T00:08:11;98916.09;;;10.44;73.56
76050;BME280;64967;50.234;19.224;2023-06-05T00:10:52;98911.50;;;10.45;74.23
76050;BME280;64967;50.234;19.224;2023-06-05T00:13:33;98904.38;;;10.37;75.31
76050;BME280;64967;50.234;19.224;2023-06-05T00:16:17;98912.13;;;9.90;74.69
76050;BME280;64967;50.234;19.224;2023-06-05T00:19:12;98914.66;;;9.76;75.37
76050;BME280;64967;50.234;19.224;2023-06-05T00:21:39;98908.72;;;9.66;74.73
76050;BME280;64967;50.234;19.224;2023-06-05T00:24:06;98908.44;;;9.61;74.93
76050;BME280;64967;50.234;19.224;2023-06-05T00:26:33;98910.69;;;9.58;74.82
76050;BME280;64967;50.234;19.224;2023-06-05T00:29:00;98897.84;;;9.45;75.50
76050;BME280;64967;50.234;19.224;2023-06-05T00:31:27;98908.16;;;9.41;77.07
76050;BME280;64967;50.234;19.224;2023-06-05T00:33:54;98900.88;;;9.42;76.28
76050;BME280;64967;50.234;19.224;2023-06-05T00:36:21;98898.03;;;9.44;76.28
76050;BME280;64967;50.234;19.224;2023-06-05T00:38:50;98899.41;;;9.54;76.60
76050;BME280;64967;50.234;19.224;2023-06-05T00:41:17;98901.81;;;9.64;77.31
76050;BME280;64967;50.234;19.224;2023-06-05T00:43:44;98902.66;;;9.64;77.67
76050;BME280;64967;50.234;19.224;2023-06-05T00:46:11;98902.75;;;9.71;77.06
76050;BME280;64967;50.234;19.224;2023-06-05T00:48:40;98892.84;;;9.78;77.00
76050;BME280;64967;50.234;19.224;2023-06-05T00:51:08;98890.72;;;9.73;77.03
76050;BME280;64967;50.234;19.224;2023-06-05T00:53:42;98897.97;;;9.73;76.39
76050;BME280;64967;50.234;19.224;2023-06-05T00:56:11;98896.50;;;9.70;76.99
76050;BME280;64967;50.234;19.224;2023-06-05T00:58:38;98880.31;;;9.56;78.00
76050;BME280;64967;50.234;19.224;2023-06-05T01:01:06;98886.56;;;9.56;77.38
76050;BME280;64967;50.234;19.224;2023-06-05T01:03:38;98901.00;;;9.63;76.75
76050;BME280;64967;50.234;19.224;2023-06-05T01:06:06;98897.91;;;9.66;77.69
76050;BME280;64967;50.234;19.224;2023-06-05T01:08:39;98890.56;;;9.60;77.16
76050;BME280;64967;50.234;19.224;2023-06-05T01:14:48;98888.97;;;9.51;77.23
76050;BME280;64967;50.234;19.224;2023-06-05T01:17:37;98887.84;;;9.46;77.56
76050;BME280;64967;50.234;19.224;2023-06-05T01:20:13;98893.06;;;9.47;77.74
76050;BME280;64967;50.234;19.224;2023-06-05T01:22:49;98887.69;;;9.47;78.53
76050;BME280;64967;50.234;19.224;2023-06-05T01:25:19;98888.69;;;9.46;78.82
76050;BME280;64967;50.234;19.224;2023-06-05T01:27:54;98884.34;;;9.45;78.39
76050;BME280;64967;50.234;19.224;2023-06-05T01:30:30;98819.22;;;9.04;78.84
76050;BME280;64967;50.234;19.224;2023-06-05T01:33:05;98854.19;;;9.27;77.26
76050;BME280;64967;50.234;19.224;2023-06-05T01:35:34;98883.69;;;9.43;76.55
76050;BME280;64967;50.234;19.224;2023-06-05T01:38:02;98881.53;;;9.38;77.78
76050;BME280;64967;50.234;19.224;2023-06-05T01:40:33;98878.09;;;9.45;77.40
76050;BME280;64967;50.234;19.224;2023-06-05T01:43:03;98890.38;;;9.47;78.08
76050;BME280;64967;50.234;19.224;2023-06-05T01:45:30;98877.53;;;9.49;77.80
76050;BME280;64967;50.234;19.224;2023-06-05T01:47:57;98885.38;;;9.44;78.00
76050;BME280;64967;50.234;19.224;2023-06-05T01:50:25;98878.28;;;9.43;77.57
76050;BME280;64967;50.234;19.224;2023-06-05T01:52:52;98879.59;;;9.47;76.88
76050;BME280;64967;50.234;19.224;2023-06-05T01:55:22;98869.25;;;9.51;76.02
76050;BME280;64967;50.234;19.224;2023-06-05T01:57:53;98873.06;;;9.56;77.02
76050;BME280;64967;50.234;19.224;2023-06-05T02:00:21;98869.97;;;9.59;76.87
76050;BME280;64967;50.234;19.224;2023-06-05T02:02:49;98871.75;;;9.67;76.61
76050;BME280;64967;50.234;19.224;2023-06-05T02:05:17;98872.94;;;9.64;75.70
76050;BME280;64967;50.234;19.224;2023-06-05T02:07:48;98874.00;;;9.63;76.67
76050;BME280;64967;50.234;19.224;2023-06-05T02:10:25;98876.03;;;9.61;75.78
76050;BME280;64967;50.234;19.224;2023-06-05T02:12:52;98883.13;;;9.62;75.30
76050;BME280;64967;50.234;19.224;2023-06-05T02:15:19;98866.91;;;9.62;76.20
76050;BME280;64967;50.234;19.224;2023-06-05T02:17:46;98877.44;;;9.57;78.17
76050;BME280;64967;50.234;19.224;2023-06-05T02:20:18;98875.75;;;9.56;76.35
76050;BME280;64967;50.234;19.224;2023-06-05T02:22:46;98879.47;;;9.55;77.16
76050;BME280;64967;50.234;19.224;2023-06-05T02:25:16;98875.19;;;9.61;75.52
76050;BME280;64967;50.234;19.224;2023-06-05T02:27:44;98877.91;;;9.61;76.74
76050;BME280;64967;50.234;19.224;2023-06-05T02:30:11;98875.31;;;9.53;77.74
76050;BME280;64967;50.234;19.224;2023-06-05T02:32:39;98871.03;;;9.58;77.67
76050;BME280;64967;50.234;19.224;2023-06-05T02:35:11;98875.47;;;9.51;77.75
76050;BME280;64967;50.234;19.224;2023-06-05T02:37:39;98878.28;;;9.43;77.39
76050;BME280;64967;50.234;19.224;2023-06-05T02:40:15;98879.13;;;9.44;78.79
76050;BME280;64967;50.234;19.224;2023-06-05T02:42:42;98862.47;;;9.40;78.18
76050;BME280;64967;50.234;19.224;2023-06-05T02:45:09;98874.19;;;9.47;78.25
76050;BME280;64967;50.234;19.224;2023-06-05T02:47:36;98870.28;;;9.50;78.55
76050;BME280;64967;50.234;19.224;2023-06-05T02:50:05;98870.09;;;9.51;78.41
76050;BME280;64967;50.234;19.224;2023-06-05T02:52:32;98871.75;;;9.52;79.23
76050;BME280;64967;50.234;19.224;2023-06-05T02:55:02;98863.56;;;9.46;77.97
76050;BME280;64967;50.234;19.224;2023-06-05T02:57:30;98870.28;;;9.50;78.66
76050;BME280;64967;50.234;19.224;2023-06-05T02:59:57;98868.41;;;9.50;77.43
76050;BME280;64967;50.234;19.224;2023-06-05T03:02:24;98879.84;;;9.52;79.36
76050;BME280;64967;50.234;19.224;2023-06-05T03:04:53;98884.25;;;9.53;79.38
76050;BME280;64967;50.234;19.224;2023-06-05T03:07:22;98868.72;;;9.40;78.87
76050;BME280;64967;50.234;19.224;2023-06-05T03:09:49;98879.78;;;9.31;81.14
76050;BME280;64967;50.234;19.224;2023-06-05T03:12:16;98883.03;;;9.12;80.54
76050;BME280;64967;50.234;19.224;2023-06-05T03:14:43;98883.03;;;9.12;80.74
76050;BME280;64967;50.234;19.224;2023-06-05T03:17:10;98884.78;;;9.19;81.36
76050;BME280;64967;50.234;19.224;2023-06-05T03:19:37;98877.06;;;9.16;81.68
76050;BME280;64967;50.234;19.224;2023-06-05T03:22:04;98883.47;;;9.01;82.02
76050;BME280;64967;50.234;19.224;2023-06-05T03:24:31;98886.72;;;8.96;81.79
76050;BME280;64967;50.234;19.224;2023-06-05T03:26:58;98875.66;;;9.06;81.29
76050;BME280;64967;50.234;19.224;2023-06-05T03:29:25;98885.16;;;9.16;80.05
76050;BME280;64967;50.234;19.224;2023-06-05T03:31:53;98879.69;;;9.24;79.92
76050;BME280;64967;50.234;19.224;2023-06-05T03:34:19;98877.91;;;9.17;81.76
76050;BME280;64967;50.234;19.224;2023-06-05T03:36:46;98878.31;;;9.14;85.24
76050;BME280;64967;50.234;19.224;2023-06-05T03:39:15;98880.91;;;9.22;83.27
76050;BME280;64967;50.234;19.224;2023-06-05T03:41:42;98879.78;;;9.31;83.18
76050;BME280;64967;50.234;19.224;2023-06-05T03:44:09;98875.69;;;9.35;84.46
76050;BME280;64967;50.234;19.224;2023-06-05T03:46:36;98883.59;;;9.22;85.19
76050;BME280;64967;50.234;19.224;2023-06-05T03:49:03;98881.34;;;9.11;84.41
76050;BME280;64967;50.234;19.224;2023-06-05T03:51:36;98876.06;;;9.17;83.29
76050;BME280;64967;50.234;19.224;2023-06-05T03:54:04;98879.22;;;9.35;82.28
76050;BME280;64967;50.234;19.224;2023-06-05T03:56:31;98883.41;;;9.53;83.33
76050;BME280;64967;50.234;19.224;2023-06-05T03:59:01;98828.41;;;9.39;83.02
76050;BME280;64967;50.234;19.224;2023-06-05T04:01:36;98883.28;;;9.75;83.25
76050;BME280;64967;50.234;19.224;2023-06-05T04:04:06;98880.84;;;9.80;81.73
76050;BME280;64967;50.234;19.224;2023-06-05T04:06:35;98886.03;;;9.97;80.23
76050;BME280;64967;50.234;19.224;2023-06-05T04:09:03;98886.94;;;10.04;80.51
76050;BME280;64967;50.234;19.224;2023-06-05T04:11:40;98888.78;;;10.18;80.53
76050;BME280;64967;50.234;19.224;2023-06-05T04:14:09;98886.63;;;10.13;81.66
76050;BME280;64967;50.234;19.224;2023-06-05T04:16:37;98885.81;;;10.13;80.93
76050;BME280;64967;50.234;19.224;2023-06-05T04:19:06;98885.16;;;10.11;80.43
76050;BME280;64967;50.234;19.224;2023-06-05T04:21:33;98883.19;;;10.19;80.14
76050;BME280;64967;50.234;19.224;2023-06-05T14:46:04;98660.63;;;25.56;35.16
76050;BME280;64967;50.234;19.224;2023-06-05T14:48:31;98666.78;;;25.71;34.96
76050;BME280;64967;50.234;19.224;2023-06-05T14:50:58;98663.09;;;25.76;35.49
76050;BME280;64967;50.234;19.224;2023-06-05T14:53:26;98656.47;;;25.96;32.50
76050;BME280;64967;50.234;19.224;2023-06-05T14:55:54;98656.00;;;26.07;32.70
76050;BME280;64967;50.234;19.224;2023-06-05T14:58:21;98654.50;;;26.15;32.98
76050;BME280;64967;50.234;19.224;2023-06-05T15:00:48;98651.50;;;26.30;32.67
76050;BME280;64967;50.234;19.224;2023-06-05T15:03:21;98658.03;;;26.02;33.95
76050;BME280;64967;50.234;19.224;2023-06-05T15:05:48;98657.59;;;25.95;35.76
76050;BME280;64967;50.234;19.224;2023-06-05T15:08:15;98650.16;;;26.09;33.10
76050;BME280;64967;50.234;19.224;2023-06-05T15:10:42;98648.97;;;26.15;32.55
76050;BME280;64967;50.234;19.224;2023-06-05T15:13:09;98652.94;;;26.09;33.38
76050;BME280;64967;50.234;19.224;2023-06-05T15:15:36;98650.25;;;26.04;34.59
76050;BME280;64967;50.234;19.224;2023-06-05T15:18:04;98653.97;;;25.94;33.30
76050;BME280;64967;50.234;19.224;2023-06-05T15:20:31;98656.69;;;25.81;33.36
76050;BME280;64967;50.234;19.224;2023-06-05T15:22:58;98646.78;;;25.56;34.05
76050;BME280;64967;50.234;19.224;2023-06-05T15:25:42;98649.03;;;25.30;34.90
76050;BME280;64967;50.234;19.224;2023-06-05T15:28:09;98651.25;;;25.28;36.12
76050;BME280;64967;50.234;19.224;2023-06-05T15:30:36;98639.00;;;24.86;36.99
76050;BME280;64967;50.234;19.224;2023-06-05T15:33:03;98651.94;;;24.62;37.99
76050;BME280;64967;50.234;19.224;2023-06-05T15:35:30;98650.53;;;24.65;37.07
76050;BME280;64967;50.234;19.224;2023-06-05T15:37:57;98648.53;;;24.70;37.73
76050;BME280;64967;50.234;19.224;2023-06-05T15:40:25;98647.53;;;24.61;36.61
76050;BME280;64967;50.234;19.224;2023-06-05T15:43:06;98647.66;;;24.46;37.63
76050;BME280;64967;50.234;19.224;2023-06-05T15:45:35;98653.81;;;24.38;38.06
76050;BME280;64967;50.234;19.224;2023-06-05T15:48:03;98624.44;;;24.13;37.03
76050;BME280;64967;50.234;19.224;2023-06-05T15:50:31;98642.34;;;24.21;37.84
76050;BME280;64967;50.234;19.224;2023-06-05T15:52:58;98649.56;;;24.12;37.84
76050;BME280;64967;50.234;19.224;2023-06-05T15:55:25;98650.88;;;23.85;38.22
76050;BME280;64967;50.234;19.224;2023-06-05T15:57:53;98646.38;;;23.99;38.84
76050;BME280;64967;50.234;19.224;2023-06-05T16:00:21;98637.94;;;24.20;37.59
76050;BME280;64967;50.234;19.224;2023-06-05T16:02:52;98650.59;;;24.26;37.00
76050;BME280;64967;50.234;19.224;2023-06-05T16:05:21;98604.38;;;23.97;37.57
76050;BME280;64967;50.234;19.224;2023-06-05T16:07:48;98651.63;;;24.35;37.38
76050;BME280;64967;50.234;19.224;2023-06-05T16:10:16;98645.09;;;24.26;36.64
76050;BME280;64967;50.234;19.224;2023-06-05T16:12:44;98651.31;;;24.02;36.55
76050;BME280;64967;50.234;19.224;2023-06-05T16:15:11;98645.84;;;23.92;37.21
76050;BME280;64967;50.234;19.224;2023-06-05T16:17:41;98653.88;;;23.89;37.25
76050;BME280;64967;50.234;19.224;2023-06-05T16:20:09;98642.63;;;23.80;38.62
76050;BME280;64967;50.234;19.224;2023-06-05T16:22:36;98657.28;;;23.76;38.61
76050;BME280;64967;50.234;19.224;2023-06-05T16:25:03;98645.25;;;23.51;38.66
76050;BME280;64967;50.234;19.224;2023-06-05T16:27:30;98653.56;;;23.46;39.54
76050;BME280;64967;50.234;19.224;2023-06-05T16:29:57;98657.13;;;23.42;39.68
76050;BME280;64967;50.234;19.224;2023-06-05T16:32:25;98647.50;;;23.44;38.98
76050;BME280;64967;50.234;19.224;2023-06-05T16:34:52;98652.19;;;23.44;39.23
76050;BME280;64967;50.234;19.224;2023-06-05T16:37:20;98656.03;;;23.48;40.18
76050;BME280;64967;50.234;19.224;2023-06-05T16:39:47;98646.69;;;23.44;38.97
76050;BME280;64967;50.234;19.224;2023-06-05T16:42:16;98646.09;;;23.42;39.71
76050;BME280;64967;50.234;19.224;2023-06-05T16:44:43;98641.16;;;23.39;39.63
76050;BME280;64967;50.234;19.224;2023-06-05T16:47:10;98634.53;;;23.35;40.53
76050;BME280;64967;50.234;19.224;2023-06-05T16:49:37;98638.41;;;23.34;40.51
76050;BME280;64967;50.234;19.224;2023-06-05T16:52:04;98637.31;;;23.30;39.67
76050;BME280;64967;50.234;19.224;2023-06-05T16:54:31;98633.53;;;23.10;41.22
76050;BME280;64967;50.234;19.224;2023-06-05T16:56:58;98625.84;;;22.97;42.12
76050;BME280;64967;50.234;19.224;2023-06-05T16:59:25;98634.69;;;23.04;41.59
76050;BME280;64967;50.234;19.224;2023-06-05T17:01:52;98638.53;;;23.03;41.18
76050;BME280;64967;50.234;19.224;2023-06-05T17:04:19;98637.19;;;22.96;41.06
76050;BME280;64967;50.234;19.224;2023-06-05T17:06:47;98634.44;;;22.91;41.41
76050;BME280;64967;50.234;19.224;2023-06-05T17:09:18;98634.44;;;22.86;43.45
76050;BME280;64967;50.234;19.224;2023-06-05T17:11:45;98637.47;;;22.79;41.92
76050;BME280;64967;50.234;19.224;2023-06-05T17:14:12;98630.88;;;22.75;42.34
76050;BME280;64967;50.234;19.224;2023-06-05T17:16:39;98629.22;;;22.69;41.97
76050;BME280;64967;50.234;19.224;2023-06-05T17:19:06;98627.84;;;22.61;42.44
76050;BME280;64967;50.234;19.224;2023-06-05T17:21:33;98620.69;;;22.55;42.72
76050;BME280;64967;50.234;19.224;2023-06-05T17:24:00;98620.44;;;22.47;42.67
76050;BME280;64967;50.234;19.224;2023-06-05T17:26:27;98631.47;;;22.47;43.12
76050;BME280;64967;50.234;19.224;2023-06-05T17:28:57;98626.50;;;22.44;42.51
76050;BME280;64967;50.234;19.224;2023-06-05T17:31:29;98623.47;;;22.40;44.10
76050;BME280;64967;50.234;19.224;2023-06-05T17:33:57;98624.88;;;22.33;45.77
76050;BME280;64967;50.234;19.224;2023-06-05T17:36:24;98624.84;;;22.22;47.36
76050;BME280;64967;50.234;19.224;2023-06-05T17:38:51;98622.66;;;22.04;47.56
76050;BME280;64967;50.234;19.224;2023-06-05T17:41:18;98621.53;;;22.00;47.47
76050;BME280;64967;50.234;19.224;2023-06-05T17:43:49;98610.22;;;21.87;45.21
76050;BME280;64967;50.234;19.224;2023-06-05T17:46:17;98623.41;;;21.79;47.24
76050;BME280;64967;50.234;19.224;2023-06-05T17:48:44;98611.56;;;21.69;47.74
76050;BME280;64967;50.234;19.224;2023-06-05T17:51:12;98611.81;;;21.62;47.86
76050;BME280;64967;50.234;19.224;2023-06-05T17:53:39;98614.84;;;21.66;48.35
76050;BME280;64967;50.234;19.224;2023-06-05T17:56:06;98615.69;;;21.61;50.36
76050;BME280;64967;50.234;19.224;2023-06-05T17:58:33;98618.13;;;21.53;49.75
76050;BME280;64967;50.234;19.224;2023-06-05T18:01:00;98600.50;;;21.39;49.00
76050;BME280;64967;50.234;19.224;2023-06-05T18:03:28;98619.22;;;21.47;46.23
76050;BME280;64967;50.234;19.224;2023-06-05T18:05:55;98622.50;;;21.44;49.38
76050;BME280;64967;50.234;19.224;2023-06-05T18:08:22;98631.88;;;21.43;49.75
76050;BME280;64967;50.234;19.224;2023-06-05T18:10:49;98617.81;;;21.39;48.82
76050;BME280;64967;50.234;19.224;2023-06-05T18:13:17;98629.09;;;21.38;48.94
76050;BME280;64967;50.234;19.224;2023-06-05T18:15:44;98633.72;;;21.27;47.03
76050;BME280;64967;50.234;19.224;2023-06-05T18:18:11;98631.25;;;21.20;49.37
76050;BME280;64967;50.234;19.224;2023-06-05T18:20:39;98638.38;;;21.21;47.66
76050;BME280;64967;50.234;19.224;2023-06-05T18:23:07;98636.16;;;21.18;51.98
76050;BME280;64967;50.234;19.224;2023-06-05T18:25:34;98630.91;;;21.12;49.47
76050;BME280;64967;50.234;19.224;2023-06-05T18:28:01;98623.97;;;21.04;48.19
76050;BME280;64967;50.234;19.224;2023-06-05T18:30:28;98633.84;;;21.00;47.34
76050;BME280;64967;50.234;19.224;2023-06-05T18:32:55;98625.56;;;20.95;47.69
76050;BME280;64967;50.234;19.224;2023-06-05T18:35:22;98643.19;;;20.99;49.42
76050;BME280;64967;50.234;19.224;2023-06-05T18:37:49;98631.69;;;21.02;48.94
76050;BME280;64967;50.234;19.224;2023-06-05T18:40:16;98632.47;;;20.98;47.58
76050;BME280;64967;50.234;19.224;2023-06-05T18:42:43;98643.66;;;20.86;48.08
76050;BME280;64967;50.234;19.224;2023-06-05T18:45:10;98627.16;;;20.81;47.24
76050;BME280;64967;50.234;19.224;2023-06-05T18:47:38;98639.25;;;20.85;50.02
76050;BME280;64967;50.234;19.224;2023-06-05T18:50:06;98642.00;;;20.85;49.58
76050;BME280;64967;50.234;19.224;2023-06-05T18:52:33;98643.34;;;20.77;49.46
76050;BME280;64967;50.234;19.224;2023-06-05T18:55:00;98645.00;;;20.78;47.95
76050;BME280;64967;50.234;19.224;2023-06-05T18:57:28;98652.16;;;20.79;49.32
76050;BME280;64967;50.234;19.224;2023-06-05T18:59:56;98652.19;;;20.84;50.94
76050;BME280;64967;50.234;19.224;2023-06-05T19:02:23;98650.72;;;20.72;48.87
76050;BME280;64967;50.234;19.224;2023-06-05T19:04:50;98647.41;;;20.65;49.18
76050;BME280;64967;50.234;19.224;2023-06-05T19:07:17;98661.22;;;20.75;50.73
76050;BME280;64967;50.234;19.224;2023-06-05T19:09:44;98665.00;;;20.69;48.40
76050;BME280;64967;50.234;19.224;2023-06-05T19:12:11;98652.59;;;20.61;50.94
76050;BME280;64967;50.234;19.224;2023-06-05T19:14:38;98657.31;;;20.66;49.58
76050;BME280;64967;50.234;19.224;2023-06-05T19:17:05;98658.34;;;20.60;50.24
76050;BME280;64967;50.234;19.224;2023-06-05T19:19:33;98663.84;;;20.60;49.17
76050;BME280;64967;50.234;19.224;2023-06-05T19:22:00;98673.91;;;20.49;50.92
76050;BME280;64967;50.234;19.224;2023-06-05T19:24:27;98664.31;;;20.46;53.09
76050;BME280;64967;50.234;19.224;2023-06-05T19:26:54;98670.09;;;20.50;52.18
76050;BME280;64967;50.234;19.224;2023-06-05T19:29:21;98662.34;;;20.42;52.35
76050;BME280;64967;50.234;19.224;2023-06-05T19:31:51;98627.66;;;20.04;52.23
76050;BME280;64967;50.234;19.224;2023-06-05T19:34:18;98672.31;;;20.21;52.23
76050;BME280;64967;50.234;19.224;2023-06-05T19:36:45;98670.84;;;20.14;52.49
76050;BME280;64967;50.234;19.224;2023-06-05T19:39:12;98667.03;;;20.15;51.29
76050;BME280;64967;50.234;19.224;2023-06-05T19:41:39;98665.66;;;20.12;53.40
76050;BME280;64967;50.234;19.224;2023-06-05T19:44:06;98659.38;;;20.17;53.97
76050;BME280;64967;50.234;19.224;2023-06-05T19:46:36;98662.38;;;20.15;54.48
76050;BME280;64967;50.234;19.224;2023-06-05T19:49:04;98645.75;;;20.00;53.57
76050;BME280;64967;50.234;19.224;2023-06-05T19:51:33;98663.41;;;20.09;51.97
76050;BME280;64967;50.234;19.224;2023-06-05T19:54:00;98660.09;;;20.07;52.45
76050;BME280;64967;50.234;19.224;2023-06-05T19:56:27;98659.22;;;20.01;52.86
76050;BME280;64967;50.234;19.224;2023-06-05T19:58:54;98659.47;;;20.00;54.25
76050;BME280;64967;50.234;19.224;2023-06-05T20:01:21;98654.56;;;20.02;51.41
76050;BME280;64967;50.234;19.224;2023-06-05T20:03:48;98657.31;;;20.02;53.75
76050;BME280;64967;50.234;19.224;2023-06-05T20:06:15;98656.69;;;19.95;52.89
76050;BME280;64967;50.234;19.224;2023-06-05T20:08:46;98660.47;;;19.89;51.18
76050;BME280;64967;50.234;19.224;2023-06-05T20:11:15;98660.47;;;19.89;50.86
76050;BME280;64967;50.234;19.224;2023-06-05T20:13:42;98655.00;;;19.89;51.47
76050;BME280;64967;50.234;19.224;2023-06-05T20:16:11;98570.69;;;19.31;51.09
76050;BME280;64967;50.234;19.224;2023-06-05T20:18:38;98652.31;;;19.94;51.31
76050;BME280;64967;50.234;19.224;2023-06-05T20:21:05;98648.97;;;19.92;51.22
76050;BME280;64967;50.234;19.224;2023-06-05T20:23:32;98646.19;;;19.87;51.37
76050;BME280;64967;50.234;19.224;2023-06-05T20:26:01;98656.06;;;19.88;50.27
76050;BME280;64967;50.234;19.224;2023-06-05T20:28:32;98642.28;;;19.83;50.06
76050;BME280;64967;50.234;19.224;2023-06-05T20:31:00;98656.28;;;19.81;52.80
76050;BME280;64967;50.234;19.224;2023-06-05T20:33:27;98642.00;;;19.79;50.63
76050;BME280;64967;50.234;19.224;2023-06-05T20:35:54;98645.56;;;19.80;49.70
76050;BME280;64967;50.234;19.224;2023-06-05T20:38:21;98647.19;;;19.76;50.74
76050;BME280;64967;50.234;19.224;2023-06-05T20:40:49;98643.84;;;19.74;53.01
76050;BME280;64967;50.234;19.224;2023-06-05T20:43:16;98655.97;;;19.78;50.34
76050;BME280;64967;50.234;19.224;2023-06-05T20:45:43;98652.91;;;19.74;49.79
76050;BME280;64967;50.234;19.224;2023-06-05T20:48:10;98645.00;;;19.78;49.51
76050;BME280;64967;50.234;19.224;2023-06-05T20:50:42;98653.22;;;19.78;50.57
76050;BME280;64967;50.234;19.224;2023-06-05T20:53:14;98660.53;;;19.67;49.43
76050;BME280;64967;50.234;19.224;2023-06-05T20:55:41;98653.56;;;19.59;49.37
76050;BME280;64967;50.234;19.224;2023-06-05T20:58:09;98664.00;;;19.57;49.37
76050;BME280;64967;50.234;19.224;2023-06-05T21:00:36;98666.03;;;19.67;49.11
76050;BME280;64967;50.234;19.224;2023-06-05T21:03:03;98658.56;;;19.63;48.93
76050;BME280;64967;50.234;19.224;2023-06-05T21:05:30;98666.22;;;19.60;48.58
76050;BME280;64967;50.234;19.224;2023-06-05T21:07:57;98664.53;;;19.59;49.30
76050;BME280;64967;50.234;19.224;2023-06-05T21:10:25;98666.75;;;19.57;49.22
76050;BME280;64967;50.234;19.224;2023-06-05T21:12:52;98660.72;;;19.60;48.92
76050;BME280;64967;50.234;19.224;2023-06-05T21:15:19;98668.28;;;19.48;49.42
76050;BME280;64967;50.234;19.224;2023-06-05T21:17:46;98661.19;;;19.52;49.36
76050;BME280;64967;50.234;19.224;2023-06-05T21:20:13;98663.41;;;19.55;49.26
76050;BME280;64967;50.234;19.224;2023-06-05T21:22:40;98666.69;;;19.52;49.12
76050;BME280;64967;50.234;19.224;2023-06-05T21:25:08;98671.56;;;19.50;49.53
76050;BME280;64967;50.234;19.224;2023-06-05T21:27:34;98666.75;;;19.41;49.55
76050;BME280;64967;50.234;19.224;2023-06-05T21:30:02;98652.38;;;19.29;49.68
76050;BME280;64967;50.234;19.224;2023-06-05T21:32:29;98662.50;;;19.28;49.83
76050;BME280;64967;50.234;19.224;2023-06-05T21:34:56;98666.91;;;19.29;49.06
76050;BME280;64967;50.234;19.224;2023-06-05T21:37:24;98659.75;;;19.28;49.33
76050;BME280;64967;50.234;19.224;2023-06-05T21:39:51;98662.97;;;19.20;48.69
76050;BME280;64967;50.234;19.224;2023-06-05T21:42:18;98662.88;;;19.15;49.72
76050;BME280;64967;50.234;19.224;2023-06-05T21:44:46;98668.22;;;19.05;49.09
76050;BME280;64967;50.234;19.224;2023-06-05T21:47:17;98667.88;;;19.18;49.41
76050;BME280;64967;50.234;19.224;2023-06-05T21:49:44;98671.84;;;19.27;49.13
76050;BME280;64967;50.234;19.224;2023-06-05T21:52:11;98664.03;;;19.19;49.12
76050;BME280;64967;50.234;19.224;2023-06-05T21:54:40;98664.63;;;18.99;48.22
76050;BME280;64967;50.234;19.224;2023-06-05T21:57:09;98667.47;;;19.09;48.73
76050;BME280;64967;50.234;19.224;2023-06-05T21:59:37;98666.97;;;19.12;47.83
76050;BME280;64967;50.234;19.224;2023-06-05T22:02:06;98662.75;;;19.05;48.64
76050;BME280;64967;50.234;19.224;2023-06-05T22:04:33;98658.38;;;19.04;48.19
76050;BME280;64967;50.234;19.224;2023-06-05T22:07:01;98671.56;;;19.07;47.94
76050;BME280;64967;50.234;19.224;2023-06-05T22:09:28;98613.63;;;18.77;47.05
76050;BME280;64967;50.234;19.224;2023-06-05T22:11:55;98668.31;;;19.10;46.72
76050;BME280;64967;50.234;19.224;2023-06-05T22:14:22;98669.97;;;19.11;46.58
76050;BME280;64967;50.234;19.224;2023-06-05T22:16:51;98671.88;;;19.10;46.07
76050;BME280;64967;50.234;19.224;2023-06-05T22:19:19;98664.25;;;19.12;46.31
76050;BME280;64967;50.234;19.224;2023-06-05T22:21:47;98665.25;;;19.06;45.92
76050;BME280;64967;50.234;19.224;2023-06-05T22:24:16;98663.41;;;19.12;46.36
76050;BME280;64967;50.234;19.224;2023-06-05T22:26:43;98671.31;;;19.08;46.99
76050;BME280;64967;50.234;19.224;2023-06-05T22:29:13;98655.44;;;19.10;46.85
76050;BME280;64967;50.234;19.224;2023-06-05T22:31:40;98652.31;;;19.02;46.04
76050;BME280;64967;50.234;19.224;2023-06-05T22:34:07;98655.63;;;19.04;46.52
76050;BME280;64967;50.234;19.224;2023-06-05T22:36:34;98660.47;;;18.97;47.03
76050;BME280;64967;50.234;19.224;2023-06-05T22:39:01;98650.38;;;18.81;47.20
76050;BME280;64967;50.234;19.224;2023-06-05T22:41:29;98651.53;;;18.85;46.69
76050;BME280;64967;50.234;19.224;2023-06-05T22:43:56;98649.63;;;18.85;47.73
76050;BME280;64967;50.234;19.224;2023-06-05T22:46:23;98643.88;;;18.87;47.08
76050;BME280;64967;50.234;19.224;2023-06-05T22:48:50;98647.72;;;18.86;47.55
76050;BME280;64967;50.234;19.224;2023-06-05T22:51:21;98645.00;;;18.69;47.19
76050;BME280;64967;50.234;19.224;2023-06-05T22:53:51;98651.69;;;18.78;47.76
76050;BME280;64967;50.234;19.224;2023-06-05T22:56:18;98651.69;;;18.78;46.96
76050;BME280;64967;50.234;19.224;2023-06-05T22:58:46;98646.56;;;18.82;47.75
76050;BME280;64967;50.234;19.224;2023-06-05T23:01:13;98637.97;;;18.73;48.83
76050;BME280;64967;50.234;19.224;2023-06-05T23:03:43;98640.94;;;18.71;46.88
76050;BME280;64967;50.234;19.224;2023-06-05T23:06:12;98634.38;;;18.73;47.38
76050;BME280;64967;50.234;19.224;2023-06-05T23:08:39;98632.97;;;18.70;48.31
76050;BME280;64967;50.234;19.224;2023-06-05T23:11:07;98638.38;;;18.65;47.52
76050;BME280;64967;50.234;19.224;2023-06-05T23:13:34;98635.94;;;18.52;48.41
76050;BME280;64967;50.234;19.224;2023-06-05T23:16:01;98635.63;;;18.48;48.51
76050;BME280;64967;50.234;19.224;2023-06-05T23:18:28;98626.34;;;18.49;49.49
76050;BME280;64967;50.234;19.224;2023-06-05T23:20:55;98638.47;;;18.53;47.84
76050;BME280;64967;50.234;19.224;2023-06-05T23:23:22;98632.81;;;18.60;49.35